sensor_id;sensor_type;location;lat;lon;timestamp;pressure;altitude;pressure_sealevel;temperature;humidity
8697;BME280;4385;48.848;8.924;2022-09-09T00:04:41;97052.69;;;22.86;100.00
8697;BME280;4385;48.848;8.924;2022-09-09T00:15:19;97047.69;;;22.83;100.00
8697;BME280;4385;48.848;8.924;2022-09-09T00:18:17;97045.13;;;22.83;100.00
8697;BME280;4385;48.848;8.924;2022-09-09T00:21:01;97045.22;;;22.81;100.00
8697;BME280;4385;48.848;8.924;2022-09-09T00:23:30;97042.72;;;22.79;100.00
8697;BME280;4385;48.848;8.924;2022-09-09T00:26:18;97051.34;;;22.78;100.00
8697;BME280;4385;48.848;8.924;2022-09-09T00:31:18;97038.56;;;22.77;100.00
8697;BME280;4385;48.848;8.924;2022-09-09T00:33:46;97037.72;;;22.76;100.00
8697;BME280;4385;48.848;8.924;2022-09-09T00:36:15;97030.09;;;22.75;100.00
8697;BME280;4385;48.848;8.924;2022-09-09T00:38:45;97042.13;;;22.74;100.00
8697;BME280;4385;48.848;8.924;2022-09-09T00:41:31;97046.41;;;22.74;100.00
8697;BME280;4385;48.848;8.924;2022-09-09T00:46:56;97041.34;;;22.72;100.00
8697;BME280;4385;48.848;8.924;2022-09-09T00:57:36;97044.06;;;22.69;100.00
8697;BME280;4385;48.848;8.924;2022-09-09T01:08:18;97030.94;;;22.75;100.00
8697;BME280;4385;48.848;8.924;2022-09-09T01:10:52;97029.19;;;22.76;100.00
8697;BME280;4385;48.848;8.924;2022-09-09T01:13:28;97041.19;;;22.75;100.00
8697;BME280;4385;48.848;8.924;2022-09-09T01:16:01;97046.34;;;22.75;100.00
8697;BME280;4385;48.848;8.924;2022-09-09T01:18:37;97042.13;;;22.74;100.00
8697;BME280;4385;48.848;8.924;2022-09-09T01:26:43;97045.63;;;22.72;100.00
8697;BME280;4385;48.848;8.924;2022-09-09T01:29:12;97049.13;;;22.71;100.00
8697;BME280;4385;48.848;8.924;2022-09-09T01:31:51;97053.41;;;22.70;100.00
8697;BME280;4385;48.848;8.924;2022-09-09T01:34:17;97058.56;;;22.70;100.00
8697;BME280;4385;48.848;8.924;2022-09-09T01:36:50;97062.03;;;22.69;100.00
8697;BME280;4385;48.848;8.924;2022-09-09T01:39:18;97064.59;;;22.69;100.00
8697;BME280;4385;48.848;8.924;2022-09-09T01:41:45;97060.38;;;22.68;100.00
8697;BME280;4385;48.848;8.924;2022-09-09T01:44:10;97064.59;;;22.69;100.00
8697;BME280;4385;48.848;8.924;2022-09-09T01:46:36;97065.50;;;22.68;100.00
8697;BME280;4385;48.848;8.924;2022-09-09T01:49:04;97069.75;;;22.69;100.00
8697;BME280;4385;48.848;8.924;2022-09-09T01:51:30;97070.78;;;22.65;100.00
8697;BME280;4385;48.848;8.924;2022-09-09T01:53:56;97066.53;;;22.64;100.00
8697;BME280;4385;48.848;8.924;2022-09-09T02:04:52;97044.75;;;22.53;100.00
8697;BME280;4385;48.848;8.924;2022-09-09T02:09:52;97039.69;;;22.52;100.00
8697;BME280;4385;48.848;8.924;2022-09-09T02:12:23;97041.47;;;22.50;100.00
8697;BME280;4385;48.848;8.924;2022-09-09T02:14:57;97049.25;;;22.48;100.00
8697;BME280;4385;48.848;8.924;2022-09-09T02:17:28;97055.28;;;22.47;100.00
8697;BME280;4385;48.848;8.924;2022-09-09T02:20:04;97060.44;;;22.47;100.00
8697;BME280;4385;48.848;8.924;2022-09-09T02:22:31;97061.34;;;22.46;100.00
8697;BME280;4385;48.848;8.924;2022-09-09T02:24:59;97057.94;;;22.46;100.00
8697;BME280;4385;48.848;8.924;2022-09-09T02:27:25;97043.38;;;22.46;100.00
8697;BME280;4385;48.848;8.924;2022-09-09T02:29:51;97061.34;;;22.46;100.00
8697;BME280;4385;48.848;8.924;2022-09-09T02:32:22;97055.44;;;22.44;100.00
8697;BME280;4385;48.848;8.924;2022-09-09T02:34:50;97049.38;;;22.45;100.00
8697;BME280;4385;48.848;8.924;2022-09-09T02:37:20;97040.03;;;22.44;100.00
8697;BME280;4385;48.848;8.924;2022-09-09T02:39:47;97040.09;;;22.42;100.00
8697;BME280;4385;48.848;8.924;2022-09-09T02:42:13;97040.03;;;22.44;100.00
8697;BME280;4385;48.848;8.924;2022-09-09T02:44:40;97046.88;;;22.43;100.00
8697;BME280;4385;48.848;8.924;2022-09-09T02:47:25;97038.38;;;22.43;100.00
8697;BME280;4385;48.848;8.924;2022-09-09T02:50:11;97024.69;;;22.42;100.00
8697;BME280;4385;48.848;8.924;2022-09-09T02:52:53;97025.59;;;22.41;100.00
8697;BME280;4385;48.848;8.924;2022-09-09T02:55:38;97023.84;;;22.42;100.00
8697;BME280;4385;48.848;8.924;2022-09-09T02:58:07;97021.34;;;22.40;100.00
8697;BME280;4385;48.848;8.924;2022-09-09T03:00:33;97020.63;;;22.38;100.00
8697;BME280;4385;48.848;8.924;2022-09-09T03:03:02;97022.34;;;22.38;100.00
8697;BME280;4385;48.848;8.924;2022-09-09T03:05:27;97018.13;;;22.37;100.00
8697;BME280;4385;48.848;8.924;2022-09-09T03:07:53;97022.47;;;22.35;100.00
8697;BME280;4385;48.848;8.924;2022-09-09T03:10:18;97025.88;;;22.35;100.00
8697;BME280;4385;48.848;8.924;2022-09-09T03:12:44;97018.19;;;22.35;100.00
8697;BME280;4385;48.848;8.924;2022-09-09T03:15:09;97017.34;;;22.35;100.00
8697;BME280;4385;48.848;8.924;2022-09-09T03:17:35;97017.34;;;22.35;100.00
8697;BME280;4385;48.848;8.924;2022-09-09T03:20:02;97022.47;;;22.35;100.00
8697;BME280;4385;48.848;8.924;2022-09-09T03:22:28;97021.63;;;22.34;100.00
8697;BME280;4385;48.848;8.924;2022-09-09T03:24:53;97021.63;;;22.34;100.00
8697;BME280;4385;48.848;8.924;2022-09-09T03:27:18;97026.78;;;22.34;100.00
8697;BME280;4385;48.848;8.924;2022-09-09T03:29:45;97025.97;;;22.34;100.00
8697;BME280;4385;48.848;8.924;2022-09-09T03:32:10;97030.25;;;22.33;100.00
8697;BME280;4385;48.848;8.924;2022-09-09T03:34:36;97034.59;;;22.31;100.00
8697;BME280;4385;48.848;8.924;2022-09-09T03:37:04;97028.53;;;22.34;100.00
8697;BME280;4385;48.848;8.924;2022-09-09T03:39:30;97031.97;;;22.33;100.00
8697;BME280;4385;48.848;8.924;2022-09-09T03:41:55;97034.53;;;22.33;100.00
8697;BME280;4385;48.848;8.924;2022-09-09T03:44:20;97034.69;;;22.29;100.00
8697;BME280;4385;48.848;8.924;2022-09-09T03:46:45;97039.81;;;22.29;100.00
8697;BME280;4385;48.848;8.924;2022-09-09T03:49:11;97032.25;;;22.26;100.00
8697;BME280;4385;48.848;8.924;2022-09-09T03:51:36;97041.78;;;22.24;100.00
8697;BME280;4385;48.848;8.924;2022-09-09T03:54:02;97040.09;;;22.23;100.00
8697;BME280;4385;48.848;8.924;2022-09-09T03:56:30;97045.22;;;22.23;100.00
8697;BME280;4385;48.848;8.924;2022-09-09T03:58:55;97030.66;;;22.24;100.00
8697;BME280;4385;48.848;8.924;2022-09-09T04:01:20;97044.34;;;22.24;100.00
8697;BME280;4385;48.848;8.924;2022-09-09T04:03:45;97045.22;;;22.23;100.00
8697;BME280;4385;48.848;8.924;2022-09-09T04:06:11;97045.22;;;22.23;100.00
8697;BME280;4385;48.848;8.924;2022-09-09T04:08:38;97040.09;;;22.23;100.00
8697;BME280;4385;48.848;8.924;2022-09-09T04:11:04;97042.66;;;22.23;100.00
8697;BME280;4385;48.848;8.924;2022-09-09T04:13:32;97037.53;;;22.23;100.00
8697;BME280;4385;48.848;8.924;2022-09-09T04:15:59;97038.44;;;22.22;100.00
8697;BME280;4385;48.848;8.924;2022-09-09T04:18:26;97038.44;;;22.22;100.00
8697;BME280;4385;48.848;8.924;2022-09-09T04:20:53;97046.13;;;22.22;100.00
8697;BME280;4385;48.848;8.924;2022-09-09T04:23:21;97042.66;;;22.23;100.00
8697;BME280;4385;48.848;8.924;2022-09-09T04:25:47;97040.88;;;22.25;100.00
8697;BME280;4385;48.848;8.924;2022-09-09T04:28:14;97038.44;;;22.22;100.00
8697;BME280;4385;48.848;8.924;2022-09-09T04:30:40;97045.28;;;22.22;100.00
8697;BME280;4385;48.848;8.924;2022-09-09T04:33:06;97045.22;;;22.23;100.00
8697;BME280;4385;48.848;8.924;2022-09-09T04:35:32;97040.16;;;22.22;100.00
8697;BME280;4385;48.848;8.924;2022-09-09T04:37:58;97048.69;;;22.22;100.00
8697;BME280;4385;48.848;8.924;2022-09-09T04:40:23;97047.91;;;22.20;100.00
8697;BME280;4385;48.848;8.924;2022-09-09T04:42:48;97050.50;;;22.20;100.00
8697;BME280;4385;48.848;8.924;2022-09-09T04:45:15;97058.25;;;22.18;100.00
8697;BME280;4385;48.848;8.924;2022-09-09T04:47:40;97058.31;;;22.17;100.00
8697;BME280;4385;48.848;8.924;2022-09-09T04:50:07;97065.28;;;22.15;100.00
8697;BME280;4385;48.848;8.924;2022-09-09T04:52:36;97064.50;;;22.13;100.00
8697;BME280;4385;48.848;8.924;2022-09-09T04:55:02;97070.47;;;22.13;100.00
8697;BME280;4385;48.848;8.924;2022-09-09T04:57:28;97065.34;;;22.13;100.00
8697;BME280;4385;48.848;8.924;2022-09-09T04:59:54;97073.13;;;22.12;100.00
8697;BME280;4385;48.848;8.924;2022-09-09T05:02:19;97077.41;;;22.11;100.00
8697;BME280;4385;48.848;8.924;2022-09-09T05:04:44;97072.28;;;22.11;100.00
8697;BME280;4385;48.848;8.924;2022-09-09T05:07:10;97078.25;;;22.12;100.00
8697;BME280;4385;48.848;8.924;2022-09-09T05:09:35;97078.19;;;22.13;100.00
8697;BME280;4385;48.848;8.924;2022-09-09T05:12:01;97083.38;;;22.12;100.00
8697;BME280;4385;48.848;8.924;2022-09-09T05:14:28;97081.56;;;22.14;100.00
8697;BME280;4385;48.848;8.924;2022-09-09T05:16:54;97078.09;;;22.15;100.00
8697;BME280;4385;48.848;8.924;2022-09-09T05:19:21;97073.84;;;22.14;100.00
8697;BME280;4385;48.848;8.924;2022-09-09T05:21:46;97073.03;;;22.13;100.00
8697;BME280;4385;48.848;8.924;2022-09-09T05:24:12;97079.91;;;22.13;100.00
8697;BME280;4385;48.848;8.924;2022-09-09T05:26:37;97082.53;;;22.11;100.00
8697;BME280;4385;48.848;8.924;2022-09-09T05:29:02;97091.22;;;22.09;100.00
8697;BME280;4385;48.848;8.924;2022-09-09T05:31:29;97096.41;;;22.07;100.00
8697;BME280;4385;48.848;8.924;2022-09-09T05:33:55;97092.09;;;22.08;100.00
8697;BME280;4385;48.848;8.924;2022-09-09T05:36:21;97086.94;;;22.08;100.00
8697;BME280;4385;48.848;8.924;2022-09-09T05:38:47;97081.00;;;22.07;100.00
8697;BME280;4385;48.848;8.924;2022-09-09T05:41:13;97090.44;;;22.07;100.00
8697;BME280;4385;48.848;8.924;2022-09-09T05:43:42;97088.78;;;22.05;100.00
8697;BME280;4385;48.848;8.924;2022-09-09T05:46:19;97092.16;;;22.06;100.00
8697;BME280;4385;48.848;8.924;2022-09-09T05:48:46;97085.38;;;22.05;100.00
8697;BME280;4385;48.848;8.924;2022-09-09T05:51:15;97088.78;;;22.05;100.00
8697;BME280;4385;48.848;8.924;2022-09-09T05:53:42;97093.91;;;22.05;100.00
8697;BME280;4385;48.848;8.924;2022-09-09T05:56:10;97093.00;;;22.07;100.00
8697;BME280;4385;48.848;8.924;2022-09-09T05:58:36;97095.56;;;22.07;100.00
8697;BME280;4385;48.848;8.924;2022-09-09T06:01:03;97094.72;;;22.06;100.00
8697;BME280;4385;48.848;8.924;2022-09-09T06:03:28;97094.72;;;22.06;100.00
8697;BME280;4385;48.848;8.924;2022-09-09T06:06:02;97097.28;;;22.06;100.00
8697;BME280;4385;48.848;8.924;2022-09-09T06:08:31;97098.13;;;22.07;100.00
8697;BME280;4385;48.848;8.924;2022-09-09T06:11:08;97102.34;;;22.08;100.00
8697;BME280;4385;48.848;8.924;2022-09-09T06:13:34;97090.44;;;22.07;100.00
8697;BME280;4385;48.848;8.924;2022-09-09T06:16:02;97097.34;;;22.04;100.00
8697;BME280;4385;48.848;8.924;2022-09-09T06:18:28;97093.19;;;22.02;100.00
8697;BME280;4385;48.848;8.924;2022-09-09T06:20:56;97096.66;;;22.01;100.00
8697;BME280;4385;48.848;8.924;2022-09-09T06:23:21;97098.47;;;21.99;100.00
8697;BME280;4385;48.848;8.924;2022-09-09T06:25:47;97098.59;;;21.96;100.00
8697;BME280;4385;48.848;8.924;2022-09-09T06:28:14;97097.00;;;21.93;100.00
8697;BME280;4385;48.848;8.924;2022-09-09T06:30:39;97101.34;;;21.91;100.00
8697;BME280;4385;48.848;8.924;2022-09-09T06:33:05;97097.94;;;21.90;100.00
8697;BME280;4385;48.848;8.924;2022-09-09T06:35:30;97101.41;;;21.89;100.00
8697;BME280;4385;48.848;8.924;2022-09-09T06:37:55;97106.59;;;21.88;100.00
8697;BME280;4385;48.848;8.924;2022-09-09T06:40:21;97092.94;;;21.87;100.00
8697;BME280;4385;48.848;8.924;2022-09-09T06:42:46;97103.28;;;21.86;100.00
8697;BME280;4385;48.848;8.924;2022-09-09T06:45:11;97109.25;;;21.86;100.00
8697;BME280;4385;48.848;8.924;2022-09-09T06:47:37;97104.09;;;21.86;100.00
8697;BME280;4385;48.848;8.924;2022-09-09T06:50:02;97103.19;;;21.87;100.00
8697;BME280;4385;48.848;8.924;2022-09-09T06:52:27;97104.09;;;21.86;100.00
8697;BME280;4385;48.848;8.924;2022-09-09T06:54:53;97099.88;;;21.85;100.00
8697;BME280;4385;48.848;8.924;2022-09-09T06:57:18;97108.41;;;21.86;100.00
8697;BME280;4385;48.848;8.924;2022-09-09T06:59:44;97107.31;;;21.91;100.00
8697;BME280;4385;48.848;8.924;2022-09-09T07:02:09;97107.88;;;21.98;100.00
8697;BME280;4385;48.848;8.924;2022-09-09T07:04:34;97112.19;;;21.98;100.00
8697;BME280;4385;48.848;8.924;2022-09-09T07:07:00;97111.41;;;21.96;100.00
8697;BME280;4385;48.848;8.924;2022-09-09T07:09:25;97117.38;;;21.96;100.00
8697;BME280;4385;48.848;8.924;2022-09-09T07:11:52;97116.34;;;22.00;100.00
8697;BME280;4385;48.848;8.924;2022-09-09T07:14:18;97120.25;;;22.09;100.00
8697;BME280;4385;48.848;8.924;2022-09-09T07:16:44;97116.47;;;22.18;100.00
8697;BME280;4385;48.848;8.924;2022-09-09T07:19:10;97113.91;;;22.18;100.00
8697;BME280;4385;48.848;8.924;2022-09-09T07:21:36;97115.69;;;22.16;100.00
8697;BME280;4385;48.848;8.924;2022-09-09T07:24:02;97112.22;;;22.17;100.00
8697;BME280;4385;48.848;8.924;2022-09-09T07:26:29;97109.56;;;22.18;100.00
8697;BME280;4385;48.848;8.924;2022-09-09T07:28:55;97111.25;;;22.20;100.00
8697;BME280;4385;48.848;8.924;2022-09-09T07:31:30;97113.56;;;22.26;100.00
8697;BME280;4385;48.848;8.924;2022-09-09T07:33:56;97109.09;;;22.29;100.00
8697;BME280;4385;48.848;8.924;2022-09-09T07:36:25;97116.59;;;22.34;100.00
8697;BME280;4385;48.848;8.924;2022-09-09T07:38:56;97106.28;;;22.36;100.00
8697;BME280;4385;48.848;8.924;2022-09-09T07:41:24;97101.91;;;22.38;100.00
8697;BME280;4385;48.848;8.924;2022-09-09T07:43:50;97105.25;;;22.40;100.00
8697;BME280;4385;48.848;8.924;2022-09-09T07:46:18;97115.38;;;22.43;100.00
8697;BME280;4385;48.848;8.924;2022-09-09T07:48:45;97114.47;;;22.44;100.00
8697;BME280;4385;48.848;8.924;2022-09-09T07:51:14;97112.63;;;22.48;100.00
8697;BME280;4385;48.848;8.924;2022-09-09T07:53:42;97110.72;;;22.51;100.00
8697;BME280;4385;48.848;8.924;2022-09-09T07:56:13;97104.63;;;22.54;100.00
8697;BME280;4385;48.848;8.924;2022-09-09T07:58:40;97111.34;;;22.57;100.00
8697;BME280;4385;48.848;8.924;2022-09-09T08:01:17;97122.44;;;22.59;100.00
8697;BME280;4385;48.848;8.924;2022-09-09T08:03:43;97112.91;;;22.61;100.00
8697;BME280;4385;48.848;8.924;2022-09-09T08:06:09;97108.47;;;22.64;100.00
8697;BME280;4385;48.848;8.924;2022-09-09T08:08:36;97103.19;;;22.67;100.00
8697;BME280;4385;48.848;8.924;2022-09-09T08:11:10;97109.91;;;22.70;100.00
8697;BME280;4385;48.848;8.924;2022-09-09T08:13:36;97127.81;;;22.72;100.00
8697;BME280;4385;48.848;8.924;2022-09-09T08:16:25;97136.22;;;22.75;100.00
8697;BME280;4385;48.848;8.924;2022-09-09T08:18:51;97136.16;;;22.77;100.00
8697;BME280;4385;48.848;8.924;2022-09-09T08:21:20;97131.88;;;22.77;100.00
8697;BME280;4385;48.848;8.924;2022-09-09T08:23:46;97133.53;;;22.78;100.00
8697;BME280;4385;48.848;8.924;2022-09-09T08:26:15;97129.97;;;22.81;100.00
8697;BME280;4385;48.848;8.924;2022-09-09T08:28:42;97114.63;;;22.79;100.00
8697;BME280;4385;48.848;8.924;2022-09-09T08:31:12;97113.69;;;22.82;100.00
8697;BME280;4385;48.848;8.924;2022-09-09T08:33:38;97105.06;;;22.83;100.00
8697;BME280;4385;48.848;8.924;2022-09-09T08:36:05;97104.16;;;22.84;100.00
8697;BME280;4385;48.848;8.924;2022-09-09T08:38:31;97122.06;;;22.86;100.00
8697;BME280;4385;48.848;8.924;2022-09-09T08:41:17;97121.97;;;22.87;100.00
8697;BME280;4385;48.848;8.924;2022-09-09T08:43:50;97124.47;;;22.89;100.00
8697;BME280;4385;48.848;8.924;2022-09-09T08:46:27;97132.13;;;22.90;100.00
8697;BME280;4385;48.848;8.924;2022-09-09T08:49:11;97129.47;;;22.92;100.00
8697;BME280;4385;48.848;8.924;2022-09-09T08:51:41;97126.03;;;22.93;100.00
8697;BME280;4385;48.848;8.924;2022-09-09T08:54:08;97127.69;;;22.94;100.00
8697;BME280;4385;48.848;8.924;2022-09-09T08:56:35;97127.69;;;22.94;100.00
8697;BME280;4385;48.848;8.924;2022-09-09T08:59:02;97131.84;;;22.97;100.00
8697;BME280;4385;48.848;8.924;2022-09-09T09:01:35;97129.25;;;22.97;100.00
8697;BME280;4385;48.848;8.924;2022-09-09T09:04:32;97136.00;;;22.99;100.00
8697;BME280;4385;48.848;8.924;2022-09-09T09:07:02;97142.81;;;23.00;100.00
8697;BME280;4385;48.848;8.924;2022-09-09T09:12:01;97131.47;;;23.04;100.00
8697;BME280;4385;48.848;8.924;2022-09-09T09:14:31;97138.22;;;23.07;100.00
8697;BME280;4385;48.848;8.924;2022-09-09T09:17:06;97126.19;;;23.08;100.00
8697;BME280;4385;48.848;8.924;2022-09-09T09:19:35;97126.97;;;23.10;100.00
8697;BME280;4385;48.848;8.924;2022-09-09T09:25:26;97120.91;;;23.11;100.00
8697;BME280;4385;48.848;8.924;2022-09-09T09:28:01;97121.69;;;23.13;100.00
8697;BME280;4385;48.848;8.924;2022-09-09T09:30:38;97117.38;;;23.13;100.00
8697;BME280;4385;48.848;8.924;2022-09-09T09:33:24;97125.00;;;23.15;100.00
8697;BME280;4385;48.848;8.924;2022-09-09T09:35:51;97100.97;;;23.16;100.00
8697;BME280;4385;48.848;8.924;2022-09-09T09:38:25;97101.81;;;23.16;100.00
8697;BME280;4385;48.848;8.924;2022-09-09T09:40:53;97102.69;;;23.15;100.00
8697;BME280;4385;48.848;8.924;2022-09-09T09:45:54;97086.63;;;23.12;100.00
8697;BME280;4385;48.848;8.924;2022-09-09T09:48:20;97093.41;;;23.13;100.00
8697;BME280;4385;48.848;8.924;2022-09-09T09:51:08;97102.91;;;23.11;100.00
8697;BME280;4385;48.848;8.924;2022-09-09T09:53:36;97111.53;;;23.10;100.00
8697;BME280;4385;48.848;8.924;2022-09-09T09:56:12;97098.53;;;23.13;100.00
8697;BME280;4385;48.848;8.924;2022-09-09T10:01:30;97096.78;;;23.50;100.00
8697;BME280;4385;48.848;8.924;2022-09-09T10:04:01;97086.13;;;23.58;100.00
8697;BME280;4385;48.848;8.924;2022-09-09T10:06:36;97085.97;;;23.61;100.00
8697;BME280;4385;48.848;8.924;2022-09-09T10:09:03;97087.63;;;23.62;100.00
8697;BME280;4385;48.848;8.924;2022-09-09T10:11:44;97091.13;;;23.61;100.00
8697;BME280;4385;48.848;8.924;2022-09-09T10:14:19;97090.28;;;23.61;100.00
8697;BME280;4385;48.848;8.924;2022-09-09T10:17:22;97084.31;;;23.60;100.00
8697;BME280;4385;48.848;8.924;2022-09-09T10:19:56;97090.44;;;23.58;100.00
8697;BME280;4385;48.848;8.924;2022-09-09T10:22:28;97089.63;;;23.57;100.00
8697;BME280;4385;48.848;8.924;2022-09-09T10:27:39;97086.97;;;23.59;100.00
8697;BME280;4385;48.848;8.924;2022-09-09T10:30:24;97086.97;;;23.59;100.00
8697;BME280;4385;48.848;8.924;2022-09-09T10:33:09;97089.47;;;23.60;100.00
8697;BME280;4385;48.848;8.924;2022-09-09T10:35:44;97089.38;;;23.62;100.00
8697;BME280;4385;48.848;8.924;2022-09-09T10:38:18;97092.69;;;23.64;100.00
8697;BME280;4385;48.848;8.924;2022-09-09T10:46:34;97091.66;;;23.68;100.00
8697;BME280;4385;48.848;8.924;2022-09-09T10:52:59;97107.81;;;23.70;100.00
8697;BME280;4385;48.848;8.924;2022-09-09T10:55:17;97129.16;;;23.72;100.00
8697;BME280;4385;48.848;8.924;2022-09-09T10:57:46;97134.31;;;23.72;100.00
8697;BME280;4385;48.848;8.924;2022-09-09T11:00:38;97141.09;;;23.73;100.00
8697;BME280;4385;48.848;8.924;2022-09-09T11:03:04;97154.03;;;23.72;100.00
8697;BME280;4385;48.848;8.924;2022-09-09T11:05:43;97153.75;;;23.60;100.00
8697;BME280;4385;48.848;8.924;2022-09-09T11:08:13;97158.34;;;23.53;100.00
8697;BME280;4385;48.848;8.924;2022-09-09T11:10:44;97165.59;;;23.45;100.00
8697;BME280;4385;48.848;8.924;2022-09-09T11:13:42;97168.47;;;23.39;100.00
8697;BME280;4385;48.848;8.924;2022-09-09T11:16:27;97170.41;;;23.34;100.00
8697;BME280;4385;48.848;8.924;2022-09-09T11:19:04;97180.91;;;23.29;100.00
8697;BME280;4385;48.848;8.924;2022-09-09T11:21:42;97182.78;;;23.25;100.00
8697;BME280;4385;48.848;8.924;2022-09-09T11:24:14;97180.28;;;23.24;100.00
8697;BME280;4385;48.848;8.924;2022-09-09T11:27:15;97181.28;;;23.21;100.00
8697;BME280;4385;48.848;8.924;2022-09-09T11:29:52;97182.28;;;23.17;100.00
8697;BME280;4385;48.848;8.924;2022-09-09T11:35:09;97173.91;;;23.13;100.00
8697;BME280;4385;48.848;8.924;2022-09-09T11:40:18;97162.16;;;23.08;100.00
8697;BME280;4385;48.848;8.924;2022-09-09T11:42:46;97147.72;;;23.05;100.00
8697;BME280;4385;48.848;8.924;2022-09-09T11:45:26;97141.00;;;23.02;100.00
8697;BME280;4385;48.848;8.924;2022-09-09T11:47:58;97133.38;;;23.01;100.00
8697;BME280;4385;48.848;8.924;2022-09-09T11:50:27;97125.91;;;23.14;100.00
8697;BME280;4385;48.848;8.924;2022-09-09T11:53:17;97114.06;;;23.29;100.00
8697;BME280;4385;48.848;8.924;2022-09-09T11:55:46;97107.53;;;23.41;100.00
8697;BME280;4385;48.848;8.924;2022-09-09T12:00:45;97103.00;;;23.46;100.00
8697;BME280;4385;48.848;8.924;2022-09-09T12:03:50;97098.66;;;23.47;100.00
8697;BME280;4385;48.848;8.924;2022-09-09T12:06:30;97093.22;;;23.53;100.00
8697;BME280;4385;48.848;8.924;2022-09-09T12:09:15;97082.13;;;23.52;100.00
8697;BME280;4385;48.848;8.924;2022-09-09T12:11:43;97089.09;;;23.50;100.00
8697;BME280;4385;48.848;8.924;2022-09-09T12:14:23;97081.22;;;23.53;100.00
8697;BME280;4385;48.848;8.924;2022-09-09T12:17:09;97079.09;;;23.44;100.00
8697;BME280;4385;48.848;8.924;2022-09-09T12:19:34;97078.31;;;23.42;100.00
8697;BME280;4385;48.848;8.924;2022-09-09T12:22:06;97070.53;;;23.44;100.00
8697;BME280;4385;48.848;8.924;2022-09-09T12:24:57;97069.50;;;23.48;100.00
8697;BME280;4385;48.848;8.924;2022-09-09T12:27:38;97071.69;;;23.56;100.00
8697;BME280;4385;48.848;8.924;2022-09-09T12:30:11;97072.50;;;23.56;100.00
8697;BME280;4385;48.848;8.924;2022-09-09T12:32:36;97061.56;;;23.52;100.00
8697;BME280;4385;48.848;8.924;2022-09-09T12:35:09;97071.00;;;23.52;100.00
8697;BME280;4385;48.848;8.924;2022-09-09T12:42:51;97066.53;;;23.38;100.00
8697;BME280;4385;48.848;8.924;2022-09-09T12:45:22;97073.38;;;23.37;100.00
8697;BME280;4385;48.848;8.924;2022-09-09T12:47:54;97074.38;;;23.35;100.00
8697;BME280;4385;48.848;8.924;2022-09-09T12:50:23;97071.38;;;23.44;100.00
8697;BME280;4385;48.848;8.924;2022-09-09T12:52:55;97069.03;;;23.39;100.00
8697;BME280;4385;48.848;8.924;2022-09-09T12:55:25;97066.75;;;23.33;100.00
8697;BME280;4385;48.848;8.924;2022-09-09T12:57:52;97058.94;;;23.35;100.00
8697;BME280;4385;48.848;8.924;2022-09-09T13:00:21;97057.75;;;23.24;100.00
8697;BME280;4385;48.848;8.924;2022-09-09T13:02:54;97058.56;;;23.25;100.00
8697;BME280;4385;48.848;8.924;2022-09-09T13:05:26;97055.25;;;23.23;100.00
8697;BME280;4385;48.848;8.924;2022-09-09T13:07:59;97053.78;;;23.17;100.00
8697;BME280;4385;48.848;8.924;2022-09-09T13:10:27;97047.00;;;23.16;100.00
8697;BME280;4385;48.848;8.924;2022-09-09T13:12:54;97054.84;;;23.13;100.00
8697;BME280;4385;48.848;8.924;2022-09-09T13:15:22;97051.66;;;23.08;100.00
8697;BME280;4385;48.848;8.924;2022-09-09T13:17:54;97049.41;;;23.01;100.00
8697;BME280;4385;48.848;8.924;2022-09-09T13:20:21;97054.59;;;23.00;100.00
8697;BME280;4385;48.848;8.924;2022-09-09T13:22:49;97051.16;;;23.01;100.00
8697;BME280;4385;48.848;8.924;2022-09-09T13:25:24;97049.47;;;23.00;100.00
8697;BME280;4385;48.848;8.924;2022-09-09T13:28:00;97041.97;;;22.95;100.00
8697;BME280;4385;48.848;8.924;2022-09-09T13:36:11;97033.53;;;22.93;100.00
8697;BME280;4385;48.848;8.924;2022-09-09T13:38:52;97040.47;;;22.91;100.00
8697;BME280;4385;48.848;8.924;2022-09-09T13:41:23;97030.34;;;22.88;100.00
8697;BME280;4385;48.848;8.924;2022-09-09T13:43:50;97036.75;;;22.79;100.00
8697;BME280;4385;48.848;8.924;2022-09-09T13:46:35;97037.88;;;22.73;100.00
8697;BME280;4385;48.848;8.924;2022-09-09T13:51:43;97039.13;;;22.64;100.00
8697;BME280;4385;48.848;8.924;2022-09-09T13:54:11;97034.97;;;22.62;100.00
8697;BME280;4385;48.848;8.924;2022-09-09T13:56:38;97034.22;;;22.60;100.00
8697;BME280;4385;48.848;8.924;2022-09-09T13:59:06;97037.69;;;22.59;100.00
8697;BME280;4385;48.848;8.924;2022-09-09T14:01:34;97041.13;;;22.58;100.00
8697;BME280;4385;48.848;8.924;2022-09-09T14:04:00;97036.91;;;22.57;100.00
8697;BME280;4385;48.848;8.924;2022-09-09T14:06:25;97028.34;;;22.56;100.00
8697;BME280;4385;48.848;8.924;2022-09-09T14:08:51;97029.25;;;22.55;100.00
8697;BME280;4385;48.848;8.924;2022-09-09T14:11:17;97018.16;;;22.54;100.00
8697;BME280;4385;48.848;8.924;2022-09-09T14:13:43;97023.28;;;22.54;100.00
8697;BME280;4385;48.848;8.924;2022-09-09T14:16:08;97031.91;;;22.53;100.00
8697;BME280;4385;48.848;8.924;2022-09-09T14:18:35;97033.56;;;22.54;100.00
8697;BME280;4385;48.848;8.924;2022-09-09T14:21:00;97031.91;;;22.53;100.00
8697;BME280;4385;48.848;8.924;2022-09-09T14:23:27;97028.41;;;22.54;100.00
8697;BME280;4385;48.848;8.924;2022-09-09T14:25:54;97031.00;;;22.54;100.00
8697;BME280;4385;48.848;8.924;2022-09-09T14:28:19;97033.47;;;22.56;100.00
8697;BME280;4385;48.848;8.924;2022-09-09T14:30:45;97022.28;;;22.59;100.00
8697;BME280;4385;48.848;8.924;2022-09-09T14:33:14;97021.38;;;22.60;100.00
8697;BME280;4385;48.848;8.924;2022-09-09T14:35:40;97022.28;;;22.59;100.00
8697;BME280;4385;48.848;8.924;2022-09-09T14:38:07;97030.59;;;22.64;100.00
8697;BME280;4385;48.848;8.924;2022-09-09T14:40:34;97025.66;;;22.78;100.00
8697;BME280;4385;48.848;8.924;2022-09-09T14:42:59;97030.06;;;22.94;100.00
8697;BME280;4385;48.848;8.924;2022-09-09T14:45:25;97038.91;;;23.06;100.00
8697;BME280;4385;48.848;8.924;2022-09-09T14:47:51;97047.06;;;23.14;100.00
8697;BME280;4385;48.848;8.924;2022-09-09T14:50:18;97046.69;;;23.22;100.00
8697;BME280;4385;48.848;8.924;2022-09-09T14:52:44;97050.78;;;23.26;100.00
8697;BME280;4385;48.848;8.924;2022-09-09T14:55:09;97048.97;;;23.28;100.00
8697;BME280;4385;48.848;8.924;2022-09-09T14:57:34;97052.16;;;23.34;100.00
8697;BME280;4385;48.848;8.924;2022-09-09T15:00:02;97052.97;;;23.34;100.00